CBH weather

Béchar Boudghene Ben Ali Lotfi Airport
Béchar, Béchar Province, Algeria

Public forecast

Using degrees Celsius for public forecast. Weather courtesy of forecast.io.

METAR (pilot weather report)

Retrieved 2019/07/17 12:00 UTC (17 minutes ago):

DAOR 171200Z 15014KT 6000 NSC 38/04 Q1015

TAF (pilot weather forecast)

Forecast is more than 12 hours old.

Retrieved 2017/11/09 18:03 UTC (2 years ago):

TAF DAOR 091700Z 0918/1009 35010KT 6000 FEW033 SCT100 TEMPO 0918/0924 3000 BLSA PROB40 TEMPO 0918/0924 35020G35KT 2000 -TSRA FEW030CB